Time;durP1;ratioP1;P1;durP2;ratioP2;P2;SDS_P1;SDS_P2;PMS_P1;PMS_P2;Temp;Humidity;BMP_temperature;BMP_pressure;BME280_temperature;BME280_humidity;BME280_pressure;Samples;Min_cycle;Max_cycle;Signal;HPM_P1;HPM_P2
2021/04/08 00:02:05;;;;;;;26.00;10.27;;;;;;;2.09;79.48;99497.61;1694160;83;20981;-77
2021/04/08 00:04:36;;;;;;;25.50;10.63;;;;;;;2.17;79.24;99498.33;1682025;84;21658;-83
2021/04/08 00:07:06;;;;;;;25.60;10.03;;;;;;;2.05;79.26;99498.33;1660865;84;21251;-77
2021/04/08 00:09:31;;;;;;;20.62;9.08;;;;;;;2.20;78.90;99498.09;1682634;84;21774;-79
2021/04/08 00:11:58;;;;;;;25.23;10.17;;;;;;;2.11;78.67;99499.17;1688061;83;21078;-81
2021/04/08 00:14:26;;;;;;;24.65;9.90;;;;;;;2.23;78.85;99491.34;1669634;84;21436;-77
2021/04/08 00:16:54;;;;;;;25.90;10.65;;;;;;;2.33;78.37;99503.98;1673672;84;21214;-77
2021/04/08 00:19:20;;;;;;;;;;;;;;;2.14;78.45;99505.44;1699992;82;21213;-78
2021/04/08 00:21:47;;;;;;;27.60;9.90;;;;;;;1.95;79.09;99502.58;1661392;84;21118;-77
2021/04/08 00:24:12;;;;;;;23.85;9.93;;;;;;;1.94;79.21;99503.06;1673985;83;21222;-79
2021/04/08 00:26:42;;;;;;;20.37;8.80;;;;;;;1.78;79.46;99509.88;1686385;84;20968;-76
2021/04/08 00:29:09;;;;;;;26.35;10.60;;;;;;;1.94;79.14;99500.91;1683304;84;21186;-76
2021/04/08 00:31:35;;;;;;;;;;;;;;;1.89;79.41;99504.34;1674888;84;21174;-77
2021/04/08 00:34:01;;;;;;;25.92;9.68;;;;;;;2.03;78.98;99505.41;1646814;84;21425;-77
2021/04/08 00:36:29;;;;;;;24.00;9.68;;;;;;;2.21;78.47;99509.70;1687035;83;21452;-76
2021/04/08 00:38:54;;;;;;;;;;;;;;;2.10;78.18;99483.17;1689638;83;21177;-76
2021/04/08 00:41:23;;;;;;;24.20;9.08;;;;;;;2.33;77.84;99511.36;1699176;82;20553;-76
2021/04/08 00:43:57;;;;;;;24.23;9.73;;;;;;;2.37;77.28;99496.78;1675901;84;21689;-79
2021/04/08 00:46:22;;;;;;;25.72;10.13;;;;;;;2.57;76.98;99516.08;1675502;84;21659;-77
2021/04/08 00:48:48;;;;;;;23.70;9.98;;;;;;;2.57;76.98;99516.08;1689092;84;21753;-80
2021/04/08 00:51:16;;;;;;;26.47;9.97;;;;;;;2.65;76.52;99512.38;1690178;83;21954;-78
2021/04/08 00:53:45;;;;;;;24.90;9.48;;;;;;;2.69;76.19;99511.20;1684655;83;21233;-78
2021/04/08 00:56:11;;;;;;;25.43;9.88;;;;;;;2.69;76.19;99511.20;1678797;84;21225;-80
2021/04/08 00:58:36;;;;;;;22.87;9.50;;;;;;;2.75;75.85;99515.93;1669943;84;22054;-77
2021/04/08 01:01:04;;;;;;;24.27;10.03;;;;;;;2.81;75.59;99521.96;1697073;83;21655;-76
2021/04/08 01:03:30;;;;;;;22.50;9.50;;;;;;;2.69;75.11;99528.14;1712097;81;21167;-76
2021/04/08 01:05:55;;;;;;;27.82;10.70;;;;;;;2.55;76.00;99530.98;1711364;82;21730;-81
2021/04/08 01:08:21;;;;;;;23.13;9.87;;;;;;;2.57;76.08;99532.53;1690206;82;20945;-77
2021/04/08 01:10:47;;;;;;;23.80;10.43;;;;;;;2.64;75.93;99525.05;1712492;82;21782;-78
2021/04/08 01:13:16;;;;;;;23.85;9.90;;;;;;;2.73;75.40;99521.72;1720733;82;21616;-77
2021/04/08 01:15:47;;;;;;;21.95;8.03;;;;;;;2.68;75.22;99521.27;1717090;82;21256;-78
2021/04/08 01:18:36;;;;;;;21.02;9.33;;;;;;;2.64;75.20;99526.35;1663225;84;21189;-79
2021/04/08 01:21:34;;;;;;;23.00;9.30;;;;;;;2.68;75.27;99522.56;1650109;82;21244;-81
2021/04/08 01:24:33;;;;;;;21.52;9.03;;;;;;;2.72;75.19;99529.20;1702953;82;21668;-77
2021/04/08 01:27:41;;;;;;;23.05;9.58;;;;;;;2.72;75.19;99529.20;1709103;82;21210;-77
2021/04/08 01:30:42;;;;;;;21.60;9.28;;;;;;;2.72;75.21;99527.05;1705027;82;21245;-77
2021/04/08 01:33:27;;;;;;;28.73;9.83;;;;;;;2.54;75.72;99529.34;1707874;82;21205;-75
2021/04/08 01:35:54;;;;;;;22.30;9.23;;;;;;;2.54;75.72;99529.34;1707855;82;21214;-78
2021/04/08 01:38:28;;;;;;;15.23;8.10;;;;;;;2.69;75.67;99520.33;1704184;82;21224;-75
2021/04/08 01:40:57;;;;;;;20.85;8.80;;;;;;;2.68;75.21;99518.66;1702161;82;21671;-78
2021/04/08 01:43:27;;;;;;;23.05;8.73;;;;;;;2.76;75.35;99520.17;1711082;82;21220;-77
2021/04/08 01:45:55;;;;;;;21.12;8.90;;;;;;;2.85;75.03;99515.53;1703684;82;21162;-76
2021/04/08 01:48:22;;;;;;;23.12;9.13;;;;;;;3.01;74.91;99517.73;1676917;82;21226;-76
2021/04/08 01:50:53;;;;;;;20.23;8.88;;;;;;;3.12;74.52;99521.27;1703585;82;25761;-75
2021/04/08 01:53:22;;;;;;;21.33;9.65;;;;;;;3.19;73.99;99519.83;1703683;82;21076;-78
2021/04/08 01:55:51;;;;;;;23.83;9.63;;;;;;;3.14;73.97;99525.42;1678685;83;21183;-75
2021/04/08 01:58:19;;;;;;;20.68;9.38;;;;;;;3.28;73.78;99522.15;1703560;82;21140;-76
2021/04/08 02:00:48;;;;;;;21.80;9.13;;;;;;;3.31;73.75;99523.20;1684025;83;21175;-77
2021/04/08 02:03:14;;;;;;;20.37;8.98;;;;;;;3.22;73.26;99520.41;1679101;82;21197;-77
2021/04/08 02:05:40;;;;;;;22.45;10.30;;;;;;;3.14;73.45;99522.81;1673679;82;21265;-76
2021/04/08 02:08:06;;;;;;;23.00;10.20;;;;;;;3.20;73.63;99527.53;1704234;82;20948;-76
2021/04/08 02:10:38;;;;;;;20.85;9.95;;;;;;;3.02;73.92;99527.71;1675459;83;21205;-77
2021/04/08 02:13:12;;;;;;;21.65;10.08;;;;;;;2.96;74.11;99535.54;1678157;83;21231;-78
2021/04/08 02:15:38;;;;;;;22.85;9.60;;;;;;;2.77;74.68;99533.57;1679248;82;21443;-78
2021/04/08 02:18:04;;;;;;;19.57;10.17;;;;;;;2.75;74.52;99532.02;1706156;82;20992;-76
2021/04/08 02:20:34;;;;;;;25.73;12.03;;;;;;;2.82;74.69;99534.03;1658826;83;21108;-76
2021/04/08 02:23:04;;;;;;;27.32;11.12;;;;;;;2.65;75.09;99529.33;1708067;82;21190;-81
2021/04/08 02:25:32;;;;;;;24.90;12.00;;;;;;;2.69;75.01;99539.88;1702998;82;21558;-76
2021/04/08 02:28:01;;;;;;;21.82;9.85;;;;;;;2.51;75.59;99531.22;1680566;83;21182;-77
2021/04/08 02:30:28;;;;;;;22.98;11.63;;;;;;;2.63;75.54;99535.14;1706084;82;21206;-78
2021/04/08 02:32:56;;;;;;;;;;;;;;;2.62;76.07;99539.98;1705291;82;21558;-78
2021/04/08 02:35:22;;;;;;;26.25;11.90;;;;;;;2.56;75.84;99525.65;1707064;83;20583;-78
2021/04/08 02:37:52;;;;;;;26.83;11.70;;;;;;;2.63;75.74;99533.84;1710001;82;21296;-79
2021/04/08 02:40:23;;;;;;;28.23;12.60;;;;;;;2.77;75.54;99530.97;1704886;82;21318;-76
2021/04/08 02:42:50;;;;;;;25.92;12.05;;;;;;;2.69;75.42;99525.53;1709511;82;21212;-76
2021/04/08 02:45:16;;;;;;;21.65;11.40;;;;;;;2.71;75.45;99538.45;1706626;82;21162;-76
2021/04/08 02:47:42;;;;;;;23.47;11.63;;;;;;;2.83;75.14;99531.78;1678564;83;21245;-80
2021/04/08 02:50:10;;;;;;;31.00;11.97;;;;;;;2.94;74.80;99537.94;1701494;82;20912;-76
2021/04/08 02:52:51;;;;;;;28.57;12.18;;;;;;;2.94;74.63;99534.02;1675023;83;21191;-76
2021/04/08 02:55:25;;;;;;;24.87;11.78;;;;;;;3.03;74.42;99527.59;1672686;82;21169;-76
2021/04/08 02:58:02;;;;;;;27.95;11.40;;;;;;;3.16;74.02;99533.94;1699545;82;21662;-78
2021/04/08 03:00:39;;;;;;;25.72;12.15;;;;;;;3.17;73.87;99529.09;1684326;83;21189;-77
2021/04/08 03:03:07;;;;;;;25.90;12.05;;;;;;;3.18;73.59;99546.38;1707659;82;21049;-75
2021/04/08 03:05:36;;;;;;;26.50;11.43;;;;;;;2.98;74.24;99544.55;1676178;82;22295;-77
2021/04/08 03:08:05;;;;;;;24.87;12.30;;;;;;;2.79;74.68;99544.70;1673256;83;21223;-76
2021/04/08 03:10:32;;;;;;;27.60;11.75;;;;;;;2.90;74.64;99545.64;1694093;82;21205;-79
2021/04/08 03:13:00;;;;;;;24.12;11.57;;;;;;;2.90;74.33;99533.42;1675343;83;21154;-75
2021/04/08 03:15:34;;;;;;;;;;;;;;;3.09;73.95;99548.42;1699583;82;21246;-76
2021/04/08 03:18:07;;;;;;;24.30;10.63;;;;;;;3.17;73.70;99542.13;1699980;82;20179;-76
2021/04/08 03:20:35;;;;;;;22.17;11.68;;;;;;;3.21;73.51;99542.70;1707923;82;21476;-77
2021/04/08 03:23:02;;;;;;;26.68;12.58;;;;;;;3.20;73.68;99548.41;1694249;82;21233;-81
2021/04/08 03:25:29;;;;;;;26.02;12.18;;;;;;;3.23;73.46;99548.16;1673964;83;21559;-81
2021/04/08 03:27:56;;;;;;;24.75;11.85;;;;;;;3.27;73.28;99546.61;1705895;82;21654;-76
2021/04/08 03:30:23;;;;;;;28.67;11.63;;;;;;;3.36;72.97;99548.47;1695269;82;21259;-83
2021/04/08 03:32:50;;;;;;;25.65;12.43;;;;;;;3.27;72.75;99546.13;1705168;82;21195;-77
2021/04/08 03:35:21;;;;;;;27.85;12.50;;;;;;;3.27;72.99;99554.44;1711781;82;21202;-77
2021/04/08 03:37:46;;;;;;;24.30;11.93;;;;;;;3.27;72.90;99557.05;1698011;82;21272;-80
2021/04/08 03:40:19;;;;;;;22.97;10.80;;;;;;;3.22;73.01;99562.15;1701799;82;21352;-82
2021/04/08 03:42:46;;;;;;;27.00;12.65;;;;;;;3.20;72.94;99558.84;1703875;82;21382;-79
2021/04/08 03:45:19;;;;;;;28.65;13.22;;;;;;;3.26;73.09;99561.91;1650789;83;26798;-78
2021/04/08 03:47:47;;;;;;;29.30;13.43;;;;;;;3.00;73.58;99559.62;1699292;82;21170;-77
2021/04/08 03:50:15;;;;;;;27.35;13.48;;;;;;;3.12;73.57;99563.01;1677411;82;21745;-83
2021/04/08 03:52:40;;;;;;;;;;;;;;;3.10;73.48;99561.83;1671077;83;21205;-77
2021/04/08 03:55:09;;;;;;;21.07;12.00;;;;;;;3.25;73.39;99562.39;1668685;82;21368;-79
2021/04/08 03:57:38;;;;;;;28.38;13.35;;;;;;;3.34;73.16;99567.32;1696671;82;21711;-78
2021/04/08 04:00:12;;;;;;;27.48;13.20;;;;;;;3.30;72.87;99555.49;1672859;83;21206;-77
2021/04/08 04:02:41;;;;;;;23.05;12.82;;;;;;;3.30;72.87;99555.49;1702296;82;21137;-76
2021/04/08 04:05:10;;;;;;;28.47;13.72;;;;;;;3.20;72.88;99566.67;1700509;83;21201;-79
2021/04/08 04:07:41;;;;;;;27.02;13.32;;;;;;;3.30;73.00;99563.32;1701475;83;21230;-79
2021/04/08 04:10:09;;;;;;;28.23;14.47;;;;;;;3.34;73.06;99573.84;1701268;83;21247;-77
2021/04/08 04:12:37;;;;;;;27.02;13.75;;;;;;;3.26;73.00;99571.03;1702124;83;21200;-77
2021/04/08 04:15:05;;;;;;;27.37;13.85;;;;;;;3.44;72.79;99574.77;1678690;83;21223;-77
2021/04/08 04:17:33;;;;;;;;;;;;;;;3.35;72.91;99571.59;1710665;83;21194;-76
2021/04/08 04:19:59;;;;;;;;;;;;;;;3.14;73.18;99574.98;1702740;82;21185;-75
2021/04/08 04:22:24;;;;;;;26.07;13.25;;;;;;;3.12;73.70;99567.73;1704632;82;20666;-79
2021/04/08 04:24:50;;;;;;;28.13;13.90;;;;;;;2.95;73.90;99574.78;1680333;83;20905;-79
2021/04/08 04:27:19;;;;;;;28.75;14.45;;;;;;;3.03;74.00;99575.84;1701729;83;21712;-78
2021/04/08 04:29:46;;;;;;;27.82;13.78;;;;;;;2.79;74.50;99583.81;1700569;83;21129;-76
2021/04/08 04:32:13;;;;;;;25.90;14.13;;;;;;;2.69;75.20;99579.80;1680312;83;21478;-77
2021/04/08 04:34:44;;;;;;;25.00;12.33;;;;;;;2.90;74.87;99579.54;1704839;82;21185;-76
2021/04/08 04:37:12;;;;;;;26.85;14.35;;;;;;;2.94;74.85;99583.09;1721658;82;21222;-76
2021/04/08 04:39:39;;;;;;;28.75;14.95;;;;;;;2.76;75.08;99585.35;1717693;82;21228;-77
2021/04/08 04:42:08;;;;;;;32.28;13.93;;;;;;;2.67;75.69;99586.92;1698331;82;21174;-76
2021/04/08 04:44:39;;;;;;;31.95;14.55;;;;;;;2.77;75.57;99583.59;1682974;84;22051;-78
2021/04/08 04:47:05;;;;;;;26.77;13.78;;;;;;;2.78;75.64;99586.08;1689320;84;22264;-76
2021/04/08 04:49:32;;;;;;;32.42;15.72;;;;;;;2.73;75.93;99591.30;1713463;82;21204;-77
2021/04/08 04:51:59;;;;;;;29.30;13.98;;;;;;;2.73;75.93;99591.30;1737878;81;21219;-77
2021/04/08 04:54:29;;;;;;;28.10;14.70;;;;;;;2.78;75.84;99588.69;1709072;82;21200;-76
2021/04/08 04:56:57;;;;;;;25.08;13.43;;;;;;;2.94;75.49;99591.41;1711489;82;21652;-77
2021/04/08 04:59:23;;;;;;;31.70;15.08;;;;;;;2.93;75.33;99588.42;1714477;82;21491;-77
2021/04/08 05:01:50;;;;;;;30.20;16.40;;;;;;;3.00;75.04;99589.61;1715116;82;20931;-76
2021/04/08 05:04:17;;;;;;;27.35;14.05;;;;;;;2.95;75.22;99590.43;1684337;82;21481;-76
2021/04/08 05:06:46;;;;;;;31.00;15.40;;;;;;;2.83;75.60;99593.06;1696693;82;21241;-79
2021/04/08 05:09:12;;;;;;;26.90;13.48;;;;;;;2.86;75.70;99592.00;1711719;82;21278;-79
2021/04/08 05:11:39;;;;;;;32.07;15.60;;;;;;;2.97;75.75;99592.46;1693677;83;21112;-77
2021/04/08 05:14:06;;;;;;;31.40;14.40;;;;;;;2.93;75.74;99593.64;1694158;83;21252;-76
2021/04/08 05:16:34;;;;;;;28.75;15.15;;;;;;;2.93;75.89;99602.77;1687268;83;21216;-76
2021/04/08 05:18:59;;;;;;;33.25;16.65;;;;;;;3.00;76.02;99603.95;1680757;83;21492;-81
2021/04/08 05:21:26;;;;;;;32.53;17.27;;;;;;;2.83;76.41;99600.88;1659819;83;21932;-79
2021/04/08 05:23:52;;;;;;;29.02;14.78;;;;;;;2.81;76.86;99605.40;1689110;83;21678;-77
2021/04/08 05:26:20;;;;;;;33.27;17.23;;;;;;;2.97;76.10;99606.81;1686158;83;21136;-79
2021/04/08 05:28:48;;;;;;;27.82;15.85;;;;;;;3.01;76.22;99608.20;1690101;83;21165;-76
2021/04/08 05:31:15;;;;;;;;;;;;;;;3.00;76.40;99617.82;1692076;83;21241;-80
2021/04/08 05:33:40;;;;;;;27.82;14.98;;;;;;;2.99;76.23;99614.03;1681081;83;21179;-78
2021/04/08 05:36:07;;;;;;;34.20;17.62;;;;;;;2.94;76.56;99614.88;1688807;83;21184;-77
2021/04/08 05:38:35;;;;;;;32.58;17.52;;;;;;;2.87;77.48;99621.88;1689472;83;21646;-76
2021/04/08 05:41:01;;;;;;;30.30;15.55;;;;;;;2.83;77.80;99628.27;1687186;83;21229;-78
2021/04/08 05:43:29;;;;;;;28.60;15.67;;;;;;;2.85;77.84;99622.45;1691903;83;21044;-78
2021/04/08 05:45:56;;;;;;;29.10;15.95;;;;;;;2.96;77.77;99626.00;1671380;83;22761;-79
2021/04/08 05:48:23;;;;;;;29.98;16.77;;;;;;;2.85;78.08;99630.27;1687407;83;21608;-78
2021/04/08 05:50:49;;;;;;;28.95;16.80;;;;;;;2.81;78.28;99627.56;1685620;83;21231;-78
2021/04/08 05:53:14;;;;;;;26.53;15.20;;;;;;;2.94;78.52;99633.13;1680194;83;21171;-76
2021/04/08 05:55:40;;;;;;;33.60;17.63;;;;;;;2.92;78.41;99629.34;1684558;83;22361;-76
2021/04/08 05:58:07;;;;;;;30.30;16.63;;;;;;;2.78;79.28;99647.36;1689789;83;21380;-78
2021/04/08 06:00:37;;;;;;;32.13;17.87;;;;;;;2.95;79.21;99642.59;1696434;82;21282;-80
2021/04/08 06:03:03;;;;;;;31.23;17.50;;;;;;;2.98;79.25;99642.35;1686338;83;21201;-77
2021/04/08 06:05:29;;;;;;;31.35;16.87;;;;;;;2.91;79.76;99649.02;1663946;83;21185;-76
2021/04/08 06:07:57;;;;;;;31.35;17.52;;;;;;;2.97;79.58;99649.36;1672953;84;21227;-83
2021/04/08 06:10:23;;;;;;;30.52;17.17;;;;;;;3.14;79.64;99655.86;1673860;84;21684;-81
2021/04/08 06:12:54;;;;;;;27.40;15.83;;;;;;;3.14;79.64;99655.86;1675114;84;21013;-80
2021/04/08 06:15:24;;;;;;;26.85;15.95;;;;;;;3.16;79.76;99656.56;1655335;84;21292;-77
2021/04/08 06:17:49;;;;;;;28.17;16.20;;;;;;;3.05;80.37;99659.19;1700148;83;21165;-77
2021/04/08 06:20:18;;;;;;;30.97;17.80;;;;;;;3.16;80.78;99667.00;1669799;83;23366;-77
2021/04/08 06:22:46;;;;;;;30.32;18.55;;;;;;;3.28;80.84;99665.67;1695482;83;21230;-75
2021/04/08 06:25:15;;;;;;;32.90;18.20;;;;;;;3.20;81.93;99668.42;1695763;83;21118;-82
2021/04/08 06:27:40;;;;;;;27.62;17.00;;;;;;;3.31;81.92;99668.03;1679450;84;21145;-78
2021/04/08 06:30:10;;;;;;;30.07;18.53;;;;;;;3.35;82.17;99674.69;1680755;84;26386;-78
2021/04/08 06:32:38;;;;;;;25.30;16.23;;;;;;;3.40;81.96;99673.83;1672866;84;21236;-76
2021/04/08 06:35:09;;;;;;;27.45;16.97;;;;;;;3.51;82.12;99679.05;1693655;83;21233;-79
2021/04/08 06:37:35;;;;;;;34.00;19.17;;;;;;;3.35;82.54;99684.63;1674398;84;21208;-81
2021/04/08 06:40:01;;;;;;;32.60;18.90;;;;;;;3.44;82.92;99681.78;1699811;83;20939;-79
2021/04/08 06:42:31;;;;;;;31.90;18.40;;;;;;;3.52;82.59;99688.52;1693896;82;23054;-79
2021/04/08 06:44:58;;;;;;;29.37;18.15;;;;;;;3.42;83.08;99688.92;1695186;84;22246;-76
2021/04/08 06:47:31;;;;;;;28.38;17.82;;;;;;;3.45;82.90;99697.81;1692669;83;21358;-78
2021/04/08 06:50:07;;;;;;;33.13;20.17;;;;;;;3.36;83.37;99695.92;1689848;83;21280;-80
2021/04/08 06:52:32;;;;;;;28.90;17.90;;;;;;;3.54;83.34;99701.00;1689710;84;21568;-75
2021/04/08 06:55:00;;;;;;;38.03;22.20;;;;;;;3.51;83.31;99702.55;1694299;82;24486;-77
2021/04/08 06:57:31;;;;;;;35.23;20.77;;;;;;;3.38;84.13;99713.59;1695844;84;21670;-80
2021/04/08 07:00:00;;;;;;;34.10;21.93;;;;;;;3.45;84.35;99717.39;1693286;84;21256;-82
2021/04/08 07:02:29;;;;;;;34.00;21.45;;;;;;;3.45;84.49;99713.47;1694765;83;21197;-80
2021/04/08 07:05:00;;;;;;;34.83;22.42;;;;;;;3.26;85.28;99711.45;1683016;82;21184;-81
2021/04/08 07:07:27;;;;;;;35.73;24.47;;;;;;;3.31;85.61;99719.77;1687349;82;21221;-74
2021/04/08 07:09:53;;;;;;;38.27;24.17;;;;;;;3.34;85.73;99723.91;1706687;82;21181;-85
2021/04/08 07:12:19;;;;;;;33.13;22.30;;;;;;;3.42;85.57;99725.45;1706800;81;21209;-77
2021/04/08 07:14:47;;;;;;;36.10;22.60;;;;;;;3.45;85.39;99731.74;1708946;82;21229;-78
2021/04/08 07:17:15;;;;;;;;;;;;;;;3.45;85.31;99739.58;1709180;82;21210;-80
2021/04/08 07:19:41;;;;;;;37.00;23.00;;;;;;;3.31;85.88;99739.80;1674897;82;20708;-80
2021/04/08 07:22:09;;;;;;;33.87;21.50;;;;;;;3.44;85.89;99741.81;1679616;82;23654;-84
2021/04/08 07:24:44;;;;;;;36.38;23.77;;;;;;;3.42;85.66;99747.64;1696445;83;21213;-77
2021/04/08 07:27:15;;;;;;;35.95;23.65;;;;;;;3.46;86.13;99753.45;1687662;83;21476;-79
2021/04/08 07:29:55;;;;;;;36.45;23.65;;;;;;;3.49;85.92;99751.41;1696631;81;21961;-78
2021/04/08 07:32:31;;;;;;;33.45;22.37;;;;;;;3.63;85.59;99756.04;1693697;82;21174;-85
2021/04/08 07:35:03;;;;;;;36.90;23.15;;;;;;;3.55;85.51;99765.29;1694375;83;21273;-74
2021/04/08 07:37:37;;;;;;;33.85;23.50;;;;;;;3.81;84.94;99765.48;1689355;82;22052;-80
2021/04/08 07:40:17;;;;;;;35.78;24.40;;;;;;;3.73;85.33;99771.34;1659219;83;21225;-79
2021/04/08 07:42:43;;;;;;;33.58;22.30;;;;;;;3.92;84.74;99772.83;1683486;83;21288;-78
2021/04/08 07:45:13;;;;;;;36.93;25.12;;;;;;;3.89;84.68;99779.60;1687707;83;21221;-80
2021/04/08 07:47:43;;;;;;;32.78;22.75;;;;;;;3.97;84.65;99780.78;1682178;82;21272;-76
2021/04/08 07:50:15;;;;;;;34.48;23.38;;;;;;;4.04;84.49;99785.84;1689504;83;21651;-77
2021/04/08 07:52:44;;;;;;;29.27;22.40;;;;;;;4.13;84.40;99789.03;1685993;82;21233;-81
2021/04/08 07:55:38;;;;;;;37.33;23.77;;;;;;;4.17;84.01;99785.72;1683457;83;21224;-77
2021/04/08 07:58:16;;;;;;;34.67;23.02;;;;;;;4.12;84.36;99800.45;1663955;83;21670;-78
2021/04/08 08:00:50;;;;;;;27.95;22.30;;;;;;;4.20;83.89;99801.15;1659809;83;21234;-77
2021/04/08 08:03:29;;;;;;;36.35;23.15;;;;;;;4.31;83.79;99800.61;1689573;83;21364;-83
2021/04/08 08:05:59;;;;;;;34.90;23.27;;;;;;;4.51;83.00;99802.09;1657261;83;21228;-78
2021/04/08 08:08:41;;;;;;;34.00;22.93;;;;;;;4.41;83.09;99807.71;1693995;83;21204;-81
2021/04/08 08:11:18;;;;;;;36.08;22.50;;;;;;;4.63;82.91;99820.70;1660141;83;21769;-77
2021/04/08 08:13:50;;;;;;;35.58;23.35;;;;;;;4.76;82.49;99818.38;1662811;83;21416;-80
2021/04/08 08:16:28;;;;;;;28.65;20.72;;;;;;;4.56;82.90;99819.53;1693816;83;21289;-79
2021/04/08 08:18:59;;;;;;;33.50;22.37;;;;;;;4.63;82.83;99818.55;1694253;83;21069;-82
2021/04/08 08:21:37;;;;;;;29.05;19.30;;;;;;;4.70;82.40;99833.27;1686933;83;21466;-82
2021/04/08 08:24:13;;;;;;;24.27;18.80;;;;;;;4.85;81.89;99828.09;1698311;82;21181;-79
2021/04/08 08:26:44;;;;;;;22.75;17.30;;;;;;;4.93;82.19;99830.89;1689011;83;21233;-79
2021/04/08 08:29:30;;;;;;;22.15;16.80;;;;;;;4.99;81.55;99831.69;1692104;83;21281;-80
2021/04/08 08:32:01;;;;;;;20.57;13.70;;;;;;;4.84;81.17;99840.31;1690244;83;21241;-76
2021/04/08 08:34:31;;;;;;;17.12;12.37;;;;;;;4.67;81.45;99848.24;1684262;83;21255;-81
2021/04/08 08:37:14;;;;;;;15.38;11.03;;;;;;;4.52;82.50;99862.56;1660686;83;21224;-77
2021/04/08 08:39:45;;;;;;;17.00;11.10;;;;;;;4.43;82.68;99871.19;1712450;82;21160;-78
2021/04/08 08:42:15;;;;;;;14.78;11.85;;;;;;;4.33;84.40;99859.79;1688939;83;21214;-78
2021/04/08 08:44:44;;;;;;;20.05;13.48;;;;;;;4.33;84.20;99867.63;1691269;82;21216;-81
2021/04/08 08:47:31;;;;;;;19.02;13.03;;;;;;;4.44;84.79;99867.59;1690461;82;21232;-78
2021/04/08 08:50:12;;;;;;;18.77;13.08;;;;;;;4.38;85.37;99868.94;1659202;83;21545;-76
2021/04/08 08:52:43;;;;;;;22.22;14.58;;;;;;;4.31;86.56;99872.50;1696649;83;21195;-77
2021/04/08 08:55:15;;;;;;;22.37;15.25;;;;;;;4.44;86.65;99867.59;1693581;82;21368;-82
2021/04/08 08:57:51;;;;;;;22.70;15.90;;;;;;;4.44;86.83;99866.28;1671753;83;21585;-78
2021/04/08 09:00:21;;;;;;;24.90;15.18;;;;;;;4.55;86.52;99879.31;1666861;83;21619;-79
2021/04/08 09:02:48;;;;;;;21.90;15.48;;;;;;;4.59;86.55;99871.58;1695982;83;21687;-85
2021/04/08 09:05:17;;;;;;;23.07;15.93;;;;;;;4.80;85.66;99878.63;1692301;81;21160;-75
2021/04/08 09:07:44;;;;;;;21.23;14.43;;;;;;;4.72;85.80;99881.88;1686066;83;21243;-79
2021/04/08 09:10:11;;;;;;;19.10;14.53;;;;;;;4.62;86.20;99889.64;1695119;83;21199;-77
2021/04/08 09:12:38;;;;;;;19.57;13.20;;;;;;;4.59;87.25;99897.73;1691006;83;21255;-76
2021/04/08 09:15:11;;;;;;;20.23;13.55;;;;;;;4.41;85.95;99900.52;1655209;83;21272;-79
2021/04/08 09:17:45;;;;;;;16.80;12.60;;;;;;;4.56;85.79;99903.22;1692944;83;21225;-80
2021/04/08 09:20:15;;;;;;;17.30;12.55;;;;;;;4.44;86.17;99910.28;1687612;83;21477;-83
2021/04/08 09:23:07;;;;;;;22.22;13.75;;;;;;;4.54;85.58;99912.97;1693337;83;21224;-79
2021/04/08 09:25:49;;;;;;;18.27;12.65;;;;;;;4.48;86.41;99908.23;1657746;83;21205;-77
2021/04/08 09:28:16;;;;;;;17.98;12.30;;;;;;;4.60;85.72;99909.87;1693563;83;21257;-77
2021/04/08 09:33:20;;;;;;;18.25;13.90;;;;;;;4.48;86.42;99916.08;1659960;83;21217;-81
2021/04/08 09:35:47;;;;;;;;;;;;;;;4.57;85.86;99918.42;1692376;83;21235;-78
2021/04/08 09:38:13;;;;;;;;;;;;;;;4.70;85.55;99924.82;1691315;83;20386;-79
2021/04/08 09:40:47;;;;;;;23.10;13.47;;;;;;;4.68;86.03;99931.00;1693907;82;26442;-79
2021/04/08 09:43:17;;;;;;;20.92;12.68;;;;;;;4.56;86.11;99933.28;1682275;83;21189;-79
2021/04/08 09:45:53;;;;;;;19.52;12.47;;;;;;;4.17;86.70;99948.56;1692129;82;21218;-80
2021/04/08 09:48:22;;;;;;;15.08;10.28;;;;;;;4.25;86.67;99944.05;1701498;82;21227;-76
2021/04/08 09:51:00;;;;;;;14.63;9.78;;;;;;;4.30;85.72;99940.58;1697441;82;21275;-80
2021/04/08 09:53:40;;;;;;;14.60;9.53;;;;;;;4.36;84.74;99965.42;1699682;82;21179;-77
2021/04/08 09:56:09;;;;;;;10.88;7.53;;;;;;;4.18;84.93;99954.16;1702640;82;21246;-79
2021/04/08 09:58:36;;;;;;;13.80;8.80;;;;;;;3.97;85.51;99959.73;1701753;82;21369;-79
2021/04/08 10:01:11;;;;;;;13.83;8.38;;;;;;;4.10;85.52;99960.44;1703080;83;28349;-77
2021/04/08 10:03:40;;;;;;;14.90;9.75;;;;;;;4.00;85.54;99975.17;1668486;83;21205;-79
2021/04/08 10:06:23;;;;;;;14.43;9.35;;;;;;;3.83;86.67;99983.82;1700481;82;21152;-79
2021/04/08 10:08:51;;;;;;;13.62;8.90;;;;;;;3.68;86.68;99982.38;1723469;82;21196;-76
2021/04/08 10:11:31;;;;;;;16.37;9.03;;;;;;;3.82;86.08;99978.23;1721603;81;21232;-78
2021/04/08 10:13:59;;;;;;;14.15;9.53;;;;;;;3.74;86.31;99984.06;1712297;82;21675;-85
2021/04/08 10:16:27;;;;;;;11.97;7.60;;;;;;;3.82;86.42;99983.45;1709587;82;21205;-79
2021/04/08 10:19:03;;;;;;;12.63;7.80;;;;;;;3.51;86.65;99994.93;1712511;82;21196;-78
2021/04/08 10:21:31;;;;;;;11.48;6.40;;;;;;;3.54;87.04;99998.63;1715314;82;21161;-76
2021/04/08 10:24:00;;;;;;;9.83;6.78;;;;;;;3.36;87.33;100007.81;1688844;82;21358;-80
2021/04/08 10:26:33;;;;;;;10.23;7.22;;;;;;;3.27;88.10;100007.19;1713803;82;21224;-77
2021/04/08 10:29:02;;;;;;;15.28;8.20;;;;;;;3.38;87.83;100007.22;1713151;82;21133;-76
2021/04/08 10:31:30;;;;;;;13.83;7.95;;;;;;;3.24;88.66;100012.97;1713431;82;21631;-76
2021/04/08 10:34:18;;;;;;;12.37;7.28;;;;;;;3.17;89.12;100013.08;1717055;82;21185;-78
2021/04/08 10:36:49;;;;;;;11.83;7.37;;;;;;;3.28;88.86;100012.74;1715052;82;21224;-78
2021/04/08 10:39:21;;;;;;;13.58;7.58;;;;;;;3.17;90.07;100030.04;1710898;82;21643;-79
2021/04/08 10:42:07;;;;;;;15.05;7.80;;;;;;;3.05;90.39;100015.27;1692680;83;21379;-75
2021/04/08 10:44:44;;;;;;;13.05;7.70;;;;;;;3.08;90.69;100022.02;1720736;80;21213;-77
2021/04/08 10:47:22;;;;;;;11.20;7.30;;;;;;;3.17;91.52;100026.13;1714452;81;21217;-81
2021/04/08 10:49:57;;;;;;;14.20;8.70;;;;;;;3.40;91.11;100026.20;1715508;82;21947;-77
2021/04/08 10:52:35;;;;;;;17.90;10.85;;;;;;;3.49;91.56;100039.06;1705875;82;38625;-78
2021/04/08 10:55:13;;;;;;;18.25;10.90;;;;;;;3.65;91.65;100037.44;1715718;82;21173;-76
2021/04/08 10:57:42;;;;;;;16.17;11.00;;;;;;;4.01;90.88;100026.46;1716516;81;21161;-77
2021/04/08 11:00:11;;;;;;;17.27;10.35;;;;;;;4.39;89.51;100030.54;1696689;83;21214;-81
2021/04/08 11:02:39;;;;;;;20.32;13.15;;;;;;;4.52;91.09;100031.22;1714294;82;21241;-78
2021/04/08 11:05:10;;;;;;;18.57;12.70;;;;;;;4.93;90.06;100029.75;1685783;84;21258;-76
2021/04/08 11:07:42;;;;;;;20.35;11.63;;;;;;;4.95;90.29;100039.61;1693068;82;21183;-79
2021/04/08 11:10:18;;;;;;;18.55;11.60;;;;;;;5.10;88.81;100032.81;1694094;83;21639;-90
2021/04/08 11:12:52;;;;;;;19.80;10.98;;;;;;;5.14;89.10;100047.30;1681028;83;21253;-80
2021/04/08 11:15:21;;;;;;;17.77;10.95;;;;;;;5.37;88.23;100038.39;1702111;82;21313;-77
2021/04/08 11:17:50;;;;;;;15.65;10.78;;;;;;;5.69;88.17;100033.62;1687064;82;21197;-75
2021/04/08 11:20:19;;;;;;;18.12;10.43;;;;;;;5.61;86.02;100030.81;1691563;83;21217;-80
2021/04/08 11:22:50;;;;;;;18.00;10.55;;;;;;;5.66;84.34;100039.11;1658155;85;22341;-78
2021/04/08 11:25:16;;;;;;;13.43;8.75;;;;;;;5.80;84.32;100039.77;1702892;83;21176;-77
2021/04/08 11:27:45;;;;;;;14.13;8.78;;;;;;;5.84;83.81;100042.00;1707885;83;21976;-78
2021/04/08 11:30:16;;;;;;;13.45;8.15;;;;;;;5.87;82.04;100043.52;1685467;82;21489;-84
2021/04/08 11:32:53;;;;;;;14.73;7.78;;;;;;;5.90;81.89;100048.50;1687538;82;21182;-77
2021/04/08 11:35:39;;;;;;;12.67;7.37;;;;;;;5.91;81.30;100055.41;1691577;82;21280;-76
2021/04/08 11:38:13;;;;;;;11.90;6.50;;;;;;;6.18;82.57;100051.45;1685248;83;21188;-77
2021/04/08 11:40:53;;;;;;;13.10;6.78;;;;;;;6.27;78.27;100049.36;1649726;83;21392;-78
2021/04/08 11:43:34;;;;;;;11.20;6.58;;;;;;;6.34;78.27;100061.00;1693930;82;21542;-77
2021/04/08 11:46:02;;;;;;;17.55;7.67;;;;;;;6.44;77.22;100050.05;1669631;83;21212;-75
2021/04/08 11:48:45;;;;;;;11.28;7.25;;;;;;;6.59;75.85;100047.09;1702652;82;21720;-82